Time;durP1;ratioP1;P1;durP2;ratioP2;P2;SDS_P1;SDS_P2;PMS_P1;PMS_P2;Temp;Humidity;BMP_temperature;BMP_pressure;BME280_temperature;BME280_humidity;BME280_pressure;Samples;Min_cycle;Max_cycle;Signal;HPM_P1;HPM_P2
2023/01/10 00:01:16;;;;;;;13.15;3.50;;;;;;;;;;4854335;29;20053;-90
2023/01/10 00:03:42;;;;;;;19.73;4.65;;;;;;;;;;4854188;29;20056;-91
2023/01/10 00:06:08;;;;;;;20.15;4.32;;;;;;;;;;4869348;29;20064;-91
2023/01/10 00:08:34;;;;;;;18.33;4.60;;;;;;;;;;4869391;29;20053;-91
2023/01/10 00:13:22;;;;;;;13.85;4.80;;;;;;;;;;4854082;29;20056;-90
2023/01/10 00:13:46;;;;;;;21.00;4.20;;;;;;;;;;4884671;29;20061;-90
2023/01/10 00:16:12;;;;;;;21.48;4.63;;;;;;;;;;4854030;29;20052;-91
2023/01/10 00:18:38;;;;;;;15.38;4.28;;;;;;;;;;4854150;29;20099;-91
2023/01/10 00:21:08;;;;;;;20.95;4.65;;;;;;;;;;4869500;29;20056;-91
2023/01/10 00:23:34;;;;;;;14.57;3.58;;;;;;;;;;4869263;29;20053;-91
2023/01/10 00:26:00;;;;;;;15.73;4.15;;;;;;;;;;4869613;29;20406;-90
2023/01/10 00:28:26;;;;;;;10.60;4.20;;;;;;;;;;4869275;29;20395;-91
2023/01/10 00:31:01;;;;;;;18.70;4.53;;;;;;;;;;4869723;29;20083;-92
2023/01/10 00:33:30;;;;;;;23.60;3.58;;;;;;;;;;4868620;29;20056;-91
2023/01/10 00:35:56;;;;;;;13.50;4.25;;;;;;;;;;4854238;29;20088;-90
2023/01/10 00:38:22;;;;;;;30.45;4.47;;;;;;;;;;4853787;29;20060;-91
2023/01/10 00:40:48;;;;;;;14.02;3.53;;;;;;;;;;4868629;29;20144;-90
2023/01/10 00:45:58;;;;;;;;;;;5.70;99.90;;;;;;4871156;29;20092;-89
2023/01/10 00:48:25;;;;;;;18.13;3.45;;;;;;;;;;4865122;29;20026;-95
2023/01/10 00:50:51;;;;;;;15.35;3.35;;;;;;;;;;4907804;29;20140;-95
2023/01/10 00:53:17;;;;;;;10.57;2.88;;;;;;;;;;4858029;29;20048;-95
2023/01/10 00:55:44;;;;;;;26.60;3.78;;;;;;;;;;4872334;29;20056;-96
2023/01/10 00:58:10;;;;;;;17.83;4.25;;;;;;;;;;4870026;29;20072;-95
2023/01/10 01:00:39;;;;;;;9.68;3.38;;;;;;;;;;4854223;29;20081;-94
2023/01/10 01:03:06;;;;;;;13.23;3.50;;;;;;;;;;4885402;29;20084;-96
2023/01/10 01:05:33;;;;;;;13.82;4.95;;;;;;;;;;4869082;29;20540;-93
2023/01/10 01:07:59;;;;;;;20.25;5.07;;;;;;;;;;4884352;29;20100;-96
2023/01/10 01:10:25;;;;;;;18.13;4.40;;;;;;;;;;4884552;29;20143;-95
2023/01/10 01:12:51;;;;;;;13.75;3.17;;;;;;;;;;4869363;29;20060;-95
2023/01/10 01:15:17;;;;;;;16.65;3.78;;;;;;;;;;4854063;29;20052;-96
2023/01/10 01:17:43;;;;;;;14.48;4.93;;;;;;;;;;4869205;29;20067;-96
2023/01/10 01:20:10;;;;;;;14.48;3.42;;;;;;;;;;4868906;29;20084;-95
2023/01/10 01:22:36;;;;;;;8.82;3.25;;;;;;;;;;4884304;29;20143;-93
2023/01/10 01:25:03;;;;;;;24.27;5.05;;;;;;;;;;4868589;29;20061;-96
2023/01/10 01:27:30;;;;;;;14.20;3.42;;;;;;;;;;4867852;29;20487;-91
2023/01/10 01:29:56;;;;;;;22.70;3.70;;;;;;;;;;4868081;29;20053;-90
2023/01/10 01:32:22;;;;;;;16.48;3.80;;;;;;;;;;4867809;29;20056;-91
2023/01/10 01:34:48;;;;;;;15.43;3.47;;;;;;;;;;4868129;29;20055;-90
2023/01/10 01:37:15;;;;;;;15.05;4.68;;;;;;;;;;4868035;29;20568;-90
2023/01/10 01:39:41;;;;;;;14.68;3.95;;;;;;;;;;4867874;29;20044;-91
2023/01/10 01:42:19;;;;;;;10.32;2.80;;;;;;;;;;4852618;29;20060;-91
2023/01/10 01:44:46;;;;;;;8.50;3.67;;;;;;;;;;4867857;29;20111;-91
2023/01/10 01:47:25;;;;;;;7.80;2.75;;;;;;;;;;4852690;29;20084;-91
2023/01/10 01:49:51;;;;;;;20.08;4.72;;;;;;;;;;4867616;29;20056;-91
2023/01/10 01:52:26;;;;;;;9.80;3.63;;;;;;;;;;4867645;29;20143;-89
2023/01/10 01:54:55;;;;;;;22.67;3.58;;;;;;;;;;4867481;29;20092;-89
2023/01/10 01:57:23;;;;;;;19.10;3.80;;;;;;;;;;4867140;29;20574;-90
2023/01/10 01:59:50;;;;;;;14.63;3.30;;;;;;;;;;4867425;29;20057;-90
2023/01/10 02:02:19;;;;;;;13.52;3.42;;;;;;;;;;4882901;29;20049;-90
2023/01/10 02:04:45;;;;;;;15.00;3.78;;;;;;;;;;4866991;29;20063;-90
2023/01/10 02:07:12;;;;;;;19.13;4.35;;;;;;;;;;4881919;29;20052;-90
2023/01/10 02:09:50;;;;;;;11.95;2.83;;;;;;;;;;4851672;29;20048;-90
2023/01/10 02:12:16;;;;;;;7.60;2.92;;;;;;;;;;4867129;29;20048;-90
2023/01/10 02:14:43;;;;;;;9.32;3.10;;;;;;;;;;4852091;29;20059;-91
2023/01/10 02:17:10;;;;;;;8.88;4.15;;;;;;;;;;4867007;29;20063;-90
2023/01/10 02:20:02;;;;;;;10.90;3.10;;;;;;;;;;4867445;29;20131;-91
2023/01/10 02:22:34;;;;;;;10.00;2.53;;;;;;;;;;4865890;29;20059;-90
2023/01/10 02:25:21;;;;;;;5.03;2.25;;;6.20;99.90;;;;;;4866848;29;20052;-90
2023/01/10 02:28:16;;;;;;;8.30;3.20;;;;;;;;;;4866765;29;20056;-91
2023/01/10 02:31:01;;;;;;;18.00;3.50;;;;;;;;;;4863133;29;20446;-91
2023/01/10 02:33:30;;;;;;;12.93;4.15;;;;;;;;;;4866868;29;20052;-90
2023/01/10 02:36:10;;;;;;;14.23;3.85;;;;;;;;;;4867184;29;20119;-91
2023/01/10 02:38:36;;;;;;;9.68;3.00;;;;;;;;;;4882068;29;20155;-90
2023/01/10 02:41:06;;;;;;;13.88;3.03;;;;;;;;;;4866762;29;20063;-90
2023/01/10 02:43:38;;;;;;;16.13;3.88;;;;;;;;;;4866952;29;20060;-90
2023/01/10 02:46:10;;;;;;;14.23;3.38;;;;;;;;;;4882911;29;20077;-93
2023/01/10 02:48:37;;;;;;;12.82;3.38;;;;;;;;;;4884071;29;20048;-93
2023/01/10 02:51:07;;;;;;;17.38;3.00;;;;;;;;;;4868275;29;20060;-95
2023/01/10 02:53:36;;;;;;;9.40;3.60;;;;;;;;;;4879735;29;20111;-95
2023/01/10 02:56:05;;;;;;;16.63;3.28;;;;;;;;;;4874712;29;20051;-95
2023/01/10 02:58:31;;;;;;;14.93;2.97;;;;;;;;;;4871021;29;20091;-96
2023/01/10 03:01:06;;;;;;;16.02;4.10;;;;;;;;;;4872599;29;20052;-96
2023/01/10 03:03:46;;;;;;;13.63;3.30;;;;;;;;;;4879886;29;20116;-96
2023/01/10 03:06:27;;;;;;;13.65;3.47;;;;;;;;;;4875835;29;20081;-96
2023/01/10 03:08:59;;;;;;;14.02;3.50;;;;;;;;;;4875772;29;20057;-96
2023/01/10 03:11:39;;;;;;;12.00;3.92;;;;;;;;;;4871324;29;20063;-96
2023/01/10 03:14:16;;;;;;;14.82;4.40;;;;;;;;;;4867754;29;20084;-96
2023/01/10 03:16:45;;;;;;;11.32;3.17;;;;;;;;;;4868277;29;20117;-96
2023/01/10 03:19:13;;;;;;;12.27;3.38;;;;;;;;;;4878505;29;20056;-94
2023/01/10 03:21:40;;;;;;;7.20;2.88;;;;;;;;;;4880065;29;20087;-88
2023/01/10 03:24:28;;;;;;;20.35;4.10;;;;;;;;;;4866195;29;20060;-88
2023/01/10 03:27:01;;;;;;;13.80;3.95;;;;;;;;;;4865655;29;20510;-88
2023/01/10 03:29:50;;;;;;;9.98;3.80;;;;;;;;;;4881116;29;20097;-88
2023/01/10 03:32:19;;;;;;;13.00;4.03;;;;;;;;;;4865383;29;20059;-88
2023/01/10 03:34:45;;;;;;;18.00;4.28;;;;;;;;;;4865673;29;20103;-88
2023/01/10 03:37:21;;;;;;;15.35;3.58;;;;;;;;;;4865825;29;20523;-89
2023/01/10 03:39:57;;;;;;;12.52;3.78;;;;;;;;;;4881457;29;20049;-89
2023/01/10 03:44:42;;;;;;;8.70;2.67;;;;;;;;;;4865951;29;20056;-89
2023/01/10 03:45:15;;;;;;;16.85;5.03;;;;;;;;;;4881380;29;20549;-90
2023/01/10 03:47:46;;;;;;;20.80;4.45;;;;;;;;;;4850397;29;20060;-90
2023/01/10 03:50:18;;;;;;;12.57;3.55;;;;;;;;;;4865858;29;20056;-90
2023/01/10 03:52:44;;;;;;;16.70;4.43;;;;;;;;;;4865953;29;20502;-90
2023/01/10 03:55:12;;;;;;;18.00;3.72;;;;;;;;;;4881369;29;20057;-90
2023/01/10 03:57:41;;;;;;;9.27;3.33;;;;;;;;;;4865701;29;20052;-90
2023/01/10 04:00:08;;;;;;;14.70;4.85;;;;;;;;;;4866092;29;20064;-90
2023/01/10 04:02:34;;;;;;;20.10;3.83;;;;;;;;;;4866120;29;20056;-90
2023/01/10 04:05:00;;;;;;;13.73;3.38;;;;;;;;;;4847307;29;20245;-90
2023/01/10 04:07:26;;;;;;;19.42;3.42;;;;;;;;;;4847760;29;20053;-90
2023/01/10 04:09:52;;;;;;;18.77;4.15;;;;;;;;;;4862905;29;20056;-91
2023/01/10 04:12:18;;;;;;;13.68;3.78;;;;;;;;;;4847791;29;20065;-90
2023/01/10 04:14:45;;;;;;;11.75;3.72;;;;;;;;;;4862904;29;20052;-90
2023/01/10 04:17:12;;;;;;;19.42;3.80;;;;;;;;;;4863643;29;20116;-96
2023/01/10 04:19:38;;;;;;;16.25;3.40;;;;;;;;;;4848457;29;20085;-96
2023/01/10 04:22:04;;;;;;;13.02;3.67;;;;;;;;;;4863712;29;20049;-96
2023/01/10 04:24:31;;;;;;;9.45;3.60;;;;;;;;;;4863384;29;20052;-96
2023/01/10 04:26:57;;;;;;;11.63;4.10;;;;;;;;;;4863771;29;20057;-93
2023/01/10 04:29:23;;;;;;;18.40;3.58;;;;;;;;;;4849114;29;20119;-94
2023/01/10 04:31:49;;;;;;;14.25;3.95;;;;;;;;;;4866997;29;20085;-95
2023/01/10 04:34:15;;;;;;;14.60;4.70;;;;;;;;;;4851457;29;20068;-94
2023/01/10 04:36:41;;;;;;;19.63;4.47;;;;;;;;;;4866717;29;20056;-94
2023/01/10 04:39:08;;;;;;;11.43;3.65;;;;;;;;;;4867167;29;20085;-92
2023/01/10 04:41:34;;;;;;;22.42;3.85;;;;;;;;;;4889595;29;20498;-93
2023/01/10 04:44:00;;;;;;;23.52;4.57;;;;;;;;;;4876846;29;20112;-94
2023/01/10 04:46:26;;;;;;;26.60;4.85;;;;;;;;;;4856939;29;20061;-91
2023/01/10 04:48:52;;;;;;;11.10;3.90;;;;;;;;;;4872036;29;20059;-94
2023/01/10 04:51:18;;;;;;;15.52;4.28;;;;;;;;;;4888432;29;20061;-94
2023/01/10 04:53:44;;;;;;;17.73;3.63;;;;;;;;;;4870168;29;20056;-96
2023/01/10 04:56:15;;;;;;;16.38;4.00;;;;;;;;;;4849978;29;20049;-90
2023/01/10 04:58:41;;;;;;;12.93;3.85;;;;;;;;;;4865404;29;20057;-90
2023/01/10 05:01:11;;;;;;;20.30;3.72;;;;;;;;;;4865154;29;20483;-90
2023/01/10 05:03:37;;;;;;;7.32;3.08;;;;;;;;;;4865218;29;20060;-90
2023/01/10 05:06:04;;;;;;;7.25;3.22;;;;;;;;;;4865528;29;20057;-90
2023/01/10 05:08:30;;;;;;;10.23;3.35;;;;;;;;;;4864939;29;20056;-89
2023/01/10 05:10:56;;;;;;;11.35;3.53;;;;;;;;;;4865293;29;20053;-89
2023/01/10 05:13:23;;;;;;;13.38;4.05;;;;;;;;;;4864861;29;20060;-90
2023/01/10 05:15:50;;;;;;;10.73;3.67;;;;;;;;;;4880311;29;20515;-89
2023/01/10 05:18:16;;;;;;;15.75;3.65;;;;;;;;;;4864647;29;20114;-90
2023/01/10 05:20:42;;;;;;;13.00;4.13;;;;;;;;;;4849489;29;20495;-89
2023/01/10 05:23:08;;;;;;;13.23;3.30;;;;;;;;;;4849962;29;20067;-90
2023/01/10 05:25:34;;;;;;;15.18;3.20;;;;;;;;;;4849664;29;20048;-89
2023/01/10 05:28:00;;;;;;;8.45;3.47;;;;;;;;;;4864365;29;20148;-89
2023/01/10 05:30:26;;;;;;;6.32;2.78;;;;;;;;;;4849374;29;20079;-89
2023/01/10 05:32:52;;;;;;;11.18;3.78;;;;;;;;;;4848999;29;20085;-89
2023/01/10 05:35:18;;;;;;;11.65;3.03;;;;;;;;;;4849164;29;20109;-90
2023/01/10 05:37:44;;;;;;;12.02;3.00;;;;;;;;;;4864624;29;20414;-90
2023/01/10 05:40:10;;;;;;;9.52;3.47;;;;;;;;;;4848939;29;20410;-90
2023/01/10 05:42:37;;;;;;;7.95;2.53;;;;;;;;;;4863719;29;20053;-90
2023/01/10 05:45:03;;;;;;;16.98;3.58;;;;;;;;;;4864534;29;20045;-90
2023/01/10 05:47:29;;;;;;;10.55;3.10;;;;;;;;;;4864353;29;20117;-90
2023/01/10 05:49:55;;;;;;;10.93;2.92;;;;;;;;;;4849262;29;20513;-90
2023/01/10 05:52:21;;;;;;;12.07;2.45;;;;;;;;;;4864393;29;20060;-90
2023/01/10 05:54:47;;;;;;;8.95;3.25;;;;;;;;;;4849226;29;20056;-90
2023/01/10 05:57:13;;;;;;;9.88;2.60;;;;;;;;;;4864764;29;20155;-91
2023/01/10 05:59:39;;;;;;;14.73;2.95;;;;;;;;;;4849182;29;20525;-91
2023/01/10 06:02:05;;;;;;;14.10;3.13;;;;;;;;;;4864572;29;20061;-91
2023/01/10 06:04:31;;;;;;;12.90;2.67;;;;;;;;;;4849210;29;20057;-91
2023/01/10 06:06:57;;;;;;;12.25;2.58;;;;;;;;;;4849156;29;20145;-90
2023/01/10 06:28:02;;;;;;;7.03;2.35;;;;;;;;;;4955510;23;20063;-91
2023/01/10 06:44:30;;;;;;;12.05;3.08;;;;;;;;;;4883072;29;20057;-94
2023/01/10 06:46:56;;;;;;;13.20;3.00;;;;;;;;;;4867207;29;20060;-95
2023/01/10 06:49:22;;;;;;;6.75;2.25;;;;;;;;;;4867935;29;20467;-95
2023/01/10 06:51:48;;;;;;;7.35;2.17;;;;;;;;;;4867339;29;20045;-95
2023/01/10 06:54:15;;;;;;;6.28;2.20;;;;;;;;;;4852468;29;20056;-95
2023/01/10 06:56:41;;;;;;;10.80;2.58;;;;;;;;;;4868498;29;20143;-95
2023/01/10 06:59:08;;;;;;;7.18;3.00;;;;;;;;;;4866970;29;20049;-92
2023/01/10 07:01:34;;;;;;;10.00;2.47;;;;;;;;;;4867333;29;20061;-94
2023/01/10 07:04:00;;;;;;;11.02;3.05;;;;;;;;;;4869117;29;20041;-95
2023/01/10 07:06:27;;;;;;;11.85;2.67;;;;;;;;;;4853018;29;20098;-93
2023/01/10 07:08:54;;;;;;;11.80;4.05;;;;;;;;;;4884022;29;20565;-95
2023/01/10 07:11:20;;;;;;;17.58;3.67;;;;;;;;;;4868197;29;20055;-93
2023/01/10 07:13:46;;;;;;;11.18;3.75;;;;;;;;;;4868248;29;20058;-95
2023/01/10 07:16:14;;;;;;;17.60;4.20;;;;;;;;;;4868654;29;20052;-94
2023/01/10 07:18:41;;;;;;;17.17;5.10;;;;;;;;;;4868038;29;20053;-94
2023/01/10 07:21:07;;;;;;;14.45;4.82;;;;;;;;;;4868167;29;20097;-94
2023/01/10 07:23:33;;;;;;;14.23;4.88;;;;;;;;;;4867883;29;20100;-94
2023/01/10 07:26:04;;;;;;;10.88;4.65;;;;;;;;;;4867845;29;20410;-93
2023/01/10 07:28:33;;;;;;;14.77;4.65;;;;;;;;;;4867851;29;20064;-95
2023/01/10 07:30:59;;;;;;;20.50;5.28;;;;;;;;;;4867702;29;20084;-94
2023/01/10 07:33:25;;;;;;;11.95;4.80;;;;;;;;;;4883347;29;20136;-94
2023/01/10 07:35:51;;;;;;;22.58;4.30;;;;;;;;;;4849629;29;20092;-93
2023/01/10 07:38:17;;;;;;;18.40;5.40;;;;;;;;;;4863437;29;20052;-90
2023/01/10 07:40:43;;;;;;;17.05;4.95;;;;;;;;;;4863308;29;20057;-91
2023/01/10 07:43:10;;;;;;;16.90;5.13;;;;;;;;;;4863195;29;20060;-91
2023/01/10 07:45:36;;;;;;;27.90;5.70;;;;;;;;;;4863437;29;20060;-91
2023/01/10 07:48:03;;;;;;;17.52;5.88;;;;;;;;;;4863073;29;20060;-90
2023/01/10 07:50:30;;;;;;;20.58;6.43;;;;;;;;;;4863195;29;20526;-91
2023/01/10 07:52:58;;;;;;;23.35;5.57;;;;;;;;;;4863149;29;20087;-91
2023/01/10 07:55:24;;;;;;;15.35;4.68;;;;;;;;;;4863227;29;20053;-91
2023/01/10 07:57:50;;;;;;;19.70;5.78;;;;;;;;;;4863223;29;20491;-90
2023/01/10 08:00:17;;;;;;;30.88;5.25;;;;;;;;;;4863280;29;20057;-90
2023/01/10 08:02:43;;;;;;;13.05;5.55;;;;;;;;;;4863764;29;20112;-90
2023/01/10 08:05:09;;;;;;;22.33;6.65;;;;;;;;;;4865208;29;20503;-91
2023/01/10 08:07:36;;;;;;;18.10;4.88;;;;;;;;;;4866575;29;20053;-91
2023/01/10 08:10:02;;;;;;;21.42;5.50;;;;;;;;;;4867069;29;20081;-91
2023/01/10 08:12:28;;;;;;;36.03;6.70;;;;;;;;;;4866535;29;20103;-91
2023/01/10 08:14:54;;;;;;;21.25;6.30;;;;;;;;;;4866586;29;20049;-90
2023/01/10 08:17:21;;;;;;;24.48;5.43;;;;;;;;;;4866297;29;20053;-91
2023/01/10 08:19:48;;;;;;;24.83;5.78;;;;;;;;;;4866413;29;20057;-90
2023/01/10 08:22:14;;;;;;;31.35;5.22;;;;;;;;;;4866854;29;20132;-90
2023/01/10 08:24:40;;;;;;;21.77;5.25;;;;;;;;;;4866344;29;20148;-91
2023/01/10 08:27:06;;;;;;;17.02;4.78;;;;;;;;;;4866493;29;20117;-91
2023/01/10 08:29:32;;;;;;;14.57;4.40;;;;;;;;;;4866488;29;20425;-91
2023/01/10 08:31:58;;;;;;;23.30;5.85;;;;;;;;;;4866236;29;20053;-90
2023/01/10 08:34:25;;;;;;;21.85;6.38;;;;;;;;;;4866505;29;20049;-91
2023/01/10 08:36:51;;;;;;;13.63;5.22;;;;;;;;;;4866556;29;20056;-90
2023/01/10 08:39:19;;;;;;;26.58;6.65;;;;;;;;;;4866402;29;20067;-90
2023/01/10 08:41:45;;;;;;;23.10;6.22;;;;;;;;;;4866084;29;20045;-90
2023/01/10 08:44:12;;;;;;;32.30;6.38;;;;;;;;;;4866642;29;20120;-91
2023/01/10 08:46:38;;;;;;;16.20;4.15;;;;;;;;;;4866226;29;20057;-91
2023/01/10 08:49:04;;;;;;;20.05;5.22;;;;;;;;;;4865955;29;20053;-90
2023/01/10 08:51:30;;;;;;;16.77;5.95;;;;;;;;;;4866591;29;20093;-94
2023/01/10 08:53:56;;;;;;;19.65;6.28;;;;;;;;;;4867189;29;20057;-93
2023/01/10 08:56:23;;;;;;;13.45;5.00;;;;;;;;;;4867090;29;20049;-93
2023/01/10 08:58:49;;;;;;;22.98;5.35;;;;;;;;;;4866715;29;20049;-94
2023/01/10 09:01:16;;;;;;;16.80;4.85;;;;;;;;;;4866940;29;20065;-94
2023/01/10 09:03:42;;;;;;;23.17;5.53;;;;;;;;;;4866840;29;20061;-93
2023/01/10 09:06:08;;;;;;;19.75;5.43;;;;;;;;;;4866832;29;20457;-94
2023/01/10 09:08:35;;;;;;;20.95;5.03;;;;;;;;;;4866767;29;20053;-93
2023/01/10 09:11:01;;;;;;;12.60;4.95;;;;;;;;;;4867084;29;20471;-94
2023/01/10 09:13:28;;;;;;;19.05;5.60;;;;;;;;;;4866731;29;20053;-93
2023/01/10 09:15:55;;;;;;;32.13;5.47;;;;;;;;;;4866514;29;20541;-94
2023/01/10 09:18:21;;;;;;;26.90;5.97;;;;;;;;;;4866727;29;20061;-93
2023/01/10 09:20:49;;;;;;;25.55;5.07;;;;;;;;;;4866378;29;20140;-95
2023/01/10 09:23:17;;;;;;;23.45;5.32;;;;;;;;;;4867155;29;20401;-95
2023/01/10 09:25:44;;;;;;;23.00;4.78;;;;;;;;;;4865424;29;20414;-90
2023/01/10 09:28:10;;;;;;;18.77;4.88;;;;;;;;;;4864978;29;20092;-91
2023/01/10 09:30:36;;;;;;;17.08;4.97;;;;;;;;;;4865231;29;20139;-91
2023/01/10 09:33:03;;;;;;;18.55;6.07;;;;;;;;;;4865150;29;20426;-90
2023/01/10 09:35:30;;;;;;;30.50;5.68;;;;;;;;;;4864874;29;20045;-91
2023/01/10 09:37:57;;;;;;;16.67;4.95;;;;;;;;;;4864873;29;20562;-91
2023/01/10 09:40:39;;;;;;;14.63;4.85;;;;;;;;;;4865453;29;20498;-91
2023/01/10 09:43:08;;;;;;;23.98;5.95;;;;;;;;;;4864733;29;20100;-91
2023/01/10 09:46:00;;;;;;;23.30;4.50;;;6.10;99.90;;;;;;4864681;29;20498;-92
2023/01/10 09:48:32;;;;;;;9.15;4.20;;;;;;;;;;4864958;29;20053;-91
2023/01/10 09:51:01;;;;;;;16.13;5.40;;;;;;;;;;4865267;29;20053;-91
2023/01/10 09:53:28;;;;;;;23.65;6.18;;;;;;;;;;4867177;29;20056;-90
2023/01/10 09:55:56;;;;;;;17.42;5.40;;;;;;;;;;4864700;29;20132;-91
2023/01/10 09:58:26;;;;;;;24.80;6.30;;;;;;;;;;4864876;29;20053;-91
2023/01/10 10:00:59;;;;;;;15.43;4.43;;;;;;;;;;4864897;29;20096;-91
2023/01/10 10:03:28;;;;;;;14.23;4.18;;;;;;;;;;4864988;29;20145;-91
2023/01/10 10:05:56;;;;;;;13.55;4.55;;;;;;;;;;4864524;29;20065;-91
2023/01/10 10:08:22;;;;;;;16.92;4.93;;;;;;;;;;4864307;29;20067;-91
2023/01/10 10:10:54;;;;;;;17.02;5.45;;;;;;;;;;4864830;29;20100;-90
2023/01/10 10:13:21;;;;;;;18.67;4.80;;;;;;;;;;4864825;29;20057;-90
2023/01/10 10:15:51;;;;;;;16.77;4.72;;;;;;;;;;4864545;29;20406;-90
2023/01/10 10:18:28;;;;;;;21.60;5.80;;;;;;;;;;4864330;29;20060;-90
2023/01/10 10:21:06;;;;;;;18.65;4.88;;;;;;;;;;4864184;29;20060;-90
2023/01/10 10:23:41;;;;;;;23.80;4.63;;;;;;;;;;4864253;29;20140;-90
2023/01/10 10:26:17;;;;;;;25.58;6.68;;;;;;;;;;4863674;29;20634;-90
2023/01/10 10:28:46;;;;;;;16.92;5.20;;;;;;;;;;4863376;29;20422;-90
2023/01/10 10:31:18;;;;;;;18.25;5.00;;;;;;;;;;4863708;29;20615;-91
2023/01/10 10:33:47;;;;;;;16.08;4.70;;;;;;;;;;4864014;29;20061;-90
2023/01/10 10:36:19;;;;;;;12.70;4.88;;;;;;;;;;4863884;29;20049;-91
2023/01/10 10:38:47;;;;;;;19.30;6.47;;;;;;;;;;4864293;29;20053;-91
2023/01/10 10:41:28;;;;;;;19.00;5.03;;;;;;;;;;4863948;29;20049;-91
2023/01/10 10:43:55;;;;;;;17.25;5.13;;;;;;;;;;4863589;29;20566;-91
2023/01/10 10:46:21;;;;;;;26.63;5.18;;;;;;;;;;4863865;29;20057;-91
2023/01/10 10:48:50;;;;;;;26.05;5.35;;;;;;;;;;4863818;29;20068;-90
2023/01/10 10:51:33;;;;;;;21.50;4.30;;;;;;;;;;4864033;29;20045;-91
2023/01/10 10:54:00;;;;;;;20.20;5.38;;;;;;;;;;4863814;29;20059;-91
2023/01/10 10:56:27;;;;;;;19.15;5.30;;;;;;;;;;4863626;29;20448;-91
2023/01/10 10:58:54;;;;;;;16.23;4.45;;;;;;;;;;4863508;29;20594;-91
2023/01/10 11:01:21;;;;;;;24.45;5.70;;;;;;;;;;4863592;29;20053;-91
2023/01/10 11:04:06;;;;;;;19.60;5.20;;;;;;;;;;4863617;29;20120;-91
2023/01/10 11:06:32;;;;;;;19.05;4.75;;;;;;;;;;4863210;29;20056;-91
2023/01/10 11:09:00;;;;;;;13.20;4.50;;;;;;;;;;4863372;29;20049;-91
2023/01/10 11:11:33;;;;;;;23.17;5.28;;;;;;;;;;4863447;29;20065;-91
2023/01/10 11:14:03;;;;;;;23.10;5.45;;;;;;;;;;4863338;29;20411;-91
2023/01/10 11:16:31;;;;;;;16.90;5.75;;;;;;;;;;4863207;29;20088;-91
2023/01/10 11:19:16;;;;;;;19.63;6.32;;;;;;;;;;4864368;29;20053;-91
2023/01/10 11:21:45;;;;;;;37.97;6.78;;;;;;;;;;4863268;29;20049;-91
2023/01/10 11:24:29;;;;;;;18.27;5.07;;;7.10;99.90;;;;;;4862958;29;20057;-91
2023/01/10 11:26:57;;;;;;;22.38;5.35;;;;;;;;;;4863146;29;20057;-91
2023/01/10 11:29:43;;;;;;;18.15;6.00;;;;;;;;;;4863063;29;20053;-91
2023/01/10 11:32:13;;;;;;;27.70;6.85;;;;;;;;;;4863672;29;20380;-91
2023/01/10 11:34:40;;;;;;;20.92;7.32;;;;;;;;;;4863696;29;20057;-91
2023/01/10 11:37:15;;;;;;;26.65;6.88;;;;;;;;;;4863323;29;20119;-92
2023/01/10 11:39:41;;;;;;;24.33;7.63;;;;;;;;;;4866379;29;20061;-91
2023/01/10 11:42:23;;;;;;;22.52;7.93;;;;;;;;;;4867275;29;20053;-93
2023/01/10 11:44:49;;;;;;;38.53;9.70;;;;;;;;;;4867249;29;20057;-93
2023/01/10 11:47:19;;;;;;;22.63;7.28;;;;;;;;;;4867825;29;20064;-93
2023/01/10 11:49:46;;;;;;;28.45;7.60;;;;;;;;;;4867571;29;20117;-92
2023/01/10 11:52:30;;;;;;;23.98;8.88;;;;;;;;;;4867501;29;20064;-94
2023/01/10 11:54:59;;;;;;;21.17;6.43;;;;;;;;;;4868169;29;20078;-93
2023/01/10 11:57:27;;;;;;;21.27;7.72;;;;;;;;;;4869018;29;20063;-93
2023/01/10 11:59:54;;;;;;;30.65;9.50;;;;;;;;;;4868385;29;20049;-94
2023/01/10 12:02:23;;;;;;;31.08;7.47;;;;;;;;;;4867886;29;20140;-93
2023/01/10 12:04:49;;;;;;;28.30;8.15;;;;;;;;;;4868161;29;20052;-93
2023/01/10 12:07:17;;;;;;;20.75;7.53;;;;;;;;;;4868007;29;20060;-93
2023/01/10 12:09:45;;;;;;;28.58;8.43;;;;;;;;;;4868218;29;20103;-92
2023/01/10 12:12:19;;;;;;;19.55;8.02;;;;;;;;;;4867532;29;20096;-93
2023/01/10 12:14:46;;;;;;;20.42;7.28;;;;;;;;;;4868331;29;20093;-93
2023/01/10 12:17:20;;;;;;;25.15;7.13;;;;;;;;;;4868820;29;20485;-93
2023/01/10 12:19:47;;;;;;;17.67;7.38;;;;;;;;;;4867841;29;20049;-93
2023/01/10 12:22:14;;;;;;;25.98;7.68;;;;;;;;;;4867926;29;20144;-94
2023/01/10 12:24:42;;;;;;;27.27;8.02;;;;;;;;;;4867708;29;20056;-92
2023/01/10 12:27:12;;;;;;;27.77;8.88;;;;;;;;;;4867401;29;20056;-93
2023/01/10 12:29:45;;;;;;;21.00;7.70;;;;;;;;;;4867870;29;20071;-93
2023/01/10 12:32:17;;;;;;;23.90;7.57;;;;;;;;;;4867716;29;20059;-93
2023/01/10 12:34:50;;;;;;;24.05;7.78;;;;;;;;;;4867368;29;20053;-93
2023/01/10 12:37:16;;;;;;;17.90;5.20;;;;;;;;;;4867195;29;20513;-92
2023/01/10 12:39:47;;;;;;;28.48;6.82;;;;;;;;;;4866924;29;20108;-92
2023/01/10 12:45:20;;;;;;;29.45;7.18;;;;;;;;;;4882657;29;20049;-93
2023/01/10 12:48:13;;;;;;;22.88;5.75;;;;;;;;;;4867941;29;20205;-92
2023/01/10 12:50:41;;;;;;;21.63;5.82;;;;;;;;;;4866614;29;20406;-92
2023/01/10 12:53:16;;;;;;;22.65;7.90;;;;;;;;;;4867112;29;20507;-92
2023/01/10 12:55:44;;;;;;;19.55;6.15;;;;;;;;;;4867189;29;20060;-92
2023/01/10 12:58:20;;;;;;;25.58;9.25;;;;;;;;;;4866134;29;20053;-91
2023/01/10 13:00:48;;;;;;;19.25;6.05;;;;;;;;;;4866419;29;20057;-91
2023/01/10 13:03:21;;;;;;;24.58;6.38;;;;;;;;;;4866215;29;20049;-91
2023/01/10 13:05:50;;;;;;;30.75;7.22;;;;;;;;;;4866114;29;20109;-92
2023/01/10 13:08:18;;;;;;;22.50;6.93;;;;;;;;;;4866138;29;20113;-91
2023/01/10 13:10:49;;;;;;;15.90;6.05;;;;;;;;;;4865803;29;20055;-91
2023/01/10 13:13:18;;;;;;;14.77;6.18;;;;;;;;;;4866024;29;20059;-91
2023/01/10 13:15:49;;;;;;;16.50;6.60;;;;;;;;;;4866049;29;20060;-91
2023/01/10 13:18:28;;;;;;;22.73;6.05;;;;;;;;;;4865758;29;20049;-92
2023/01/10 13:21:07;;;;;;;16.15;6.32;;;;;;;;;;4881333;29;20065;-91
2023/01/10 13:23:35;;;;;;;16.20;6.22;;;;;;;;;;4865936;29;20049;-91
2023/01/10 13:26:07;;;;;;;19.65;5.30;;;;;;;;;;4866020;29;20056;-92
2023/01/10 13:28:35;;;;;;;21.80;6.72;;;;;;;;;;4865548;29;20053;-91
2023/01/10 13:31:03;;;;;;;17.27;7.22;;;;;;;;;;4865484;29;20049;-91
2023/01/10 13:33:34;;;;;;;20.83;6.18;;;;;;;;;;4865734;29;20506;-91
2023/01/10 13:36:19;;;;;;;20.42;6.93;;;;;;;;;;4865609;29;20061;-91
2023/01/10 13:38:45;;;;;;;30.08;7.70;;;;;;;;;;4865611;29;20061;-92
2023/01/10 13:43:17;;;;;;;27.98;7.43;;;;;;;;;;4865852;29;20053;-91
2023/01/10 13:44:00;;;;;;;22.30;5.65;;;;;;;;;;4862636;29;20109;-91
2023/01/10 13:46:26;;;;;;;21.00;6.65;;;;;;;;;;4862466;29;20086;-91
2023/01/10 13:48:53;;;;;;;20.70;6.63;;;;;;;;;;4862019;29;20519;-92
2023/01/10 13:51:20;;;;;;;33.38;6.18;;;;;;;;;;4862342;29;20049;-91
2023/01/10 13:53:52;;;;;;;25.10;5.68;;;;;;;;;;4862679;29;20098;-92
2023/01/10 13:56:53;;;;;;;21.40;5.55;;;;;;;;;;4862417;29;20061;-92
2023/01/10 14:02:28;;;;;;;22.33;5.20;;;;;;;;;;4857430;29;20126;-91
2023/01/10 14:04:57;;;;;;;24.98;6.40;;;;;;;;;;4861832;29;20061;-92
2023/01/10 14:07:26;;;;;;;24.35;7.25;;;;;;;;;;4861307;29;20483;-91
2023/01/10 14:09:57;;;;;;;12.50;4.68;;;;;;;;;;4861676;29;20129;-90
2023/01/10 14:12:26;;;;;;;20.20;6.13;;;;;;;;;;4861664;29;20068;-91
2023/01/10 14:14:54;;;;;;;16.52;5.30;;;;;;;;;;4861154;29;20053;-92
2023/01/10 14:17:20;;;;;;;19.65;5.30;;;;;;;;;;4861485;29;20124;-91
2023/01/10 14:19:48;;;;;;;25.05;5.93;;;;;;;;;;4860980;29;20060;-93
2023/01/10 14:22:29;;;;;;;22.63;5.07;;;;;;;;;;4861626;29;20499;-92
2023/01/10 14:25:15;;;;;;;23.63;4.88;;;;;;;;;;5146352;27;1492190;-92
2023/01/10 14:27:46;;;;;;;15.43;5.47;;;;;;;;;;5138717;27;20046;-92
2023/01/10 14:30:20;;;;;;;17.10;5.03;;;;;;;;;;5138793;27;20494;-93
2023/01/10 14:32:49;;;;;;;28.27;5.97;;;;;;;;;;5139032;27;20129;-93
2023/01/10 14:35:17;;;;;;;26.90;6.97;;;;;;;;;;5126142;27;20399;-92
2023/01/10 14:37:45;;;;;;;22.05;5.00;;;;;;;;;;5118233;27;20035;-92
2023/01/10 14:40:21;;;;;;;27.33;5.32;;;;;;;;;;5118574;27;20058;-93
2023/01/10 14:42:48;;;;;;;14.45;4.53;;;;;;;;;;5117682;27;20047;-94
2023/01/10 14:45:18;;;;;;;17.85;4.88;;;;;;;;;;5117412;27;20116;-94
2023/01/10 14:47:45;;;;;;;23.08;4.50;;;;;;;;;;5118313;27;20058;-94
2023/01/10 14:50:30;;;;;;;16.60;4.15;;;;;;;;;;5117244;27;20061;-94
2023/01/10 14:52:56;;;;;;;30.52;5.00;;;;;;;;;;5117279;27;20522;-94
2023/01/10 14:55:22;;;;;;;21.35;4.45;;;;;;;;;;5118593;27;20398;-94
2023/01/10 14:57:54;;;;;;;18.77;5.18;;;;;;;;;;5118164;27;20053;-93
2023/01/10 15:00:24;;;;;;;23.90;5.85;;;;;;;;;;5118737;27;20043;-93
2023/01/10 15:02:50;;;;;;;19.20;4.32;;;;;;;;;;5117740;27;20047;-95
2023/01/10 15:05:17;;;;;;;18.45;4.47;;;;;;;;;;5101277;27;20047;-94
2023/01/10 15:07:43;;;;;;;15.88;4.50;;;;;;;;;;5117852;27;20039;-94
2023/01/10 15:10:17;;;;;;;20.25;3.67;;;;;;;;;;5118540;27;20099;-94
2023/01/10 15:12:43;;;;;;;;;;;6.60;99.90;;;;;;5118475;27;20043;-93
2023/01/10 15:15:15;;;;;;;17.88;4.78;;;;;;;;;;5117732;27;19923;-94
2023/01/10 15:17:41;;;;;;;24.70;6.50;;;;;;;;;;5117969;27;20075;-94
2023/01/10 15:20:10;;;;;;;12.27;3.33;;;;;;;;;;5117803;27;20125;-94
2023/01/10 15:22:36;;;;;;;14.40;3.53;;;;;;;;;;5117552;27;20080;-94
2023/01/10 15:25:07;;;;;;;19.60;5.28;;;;;;;;;;5117202;27;20515;-94